Time;durP1;ratioP1;P1;durP2;ratioP2;P2;SDS_P1;SDS_P2;PMS_P1;PMS_P2;Temp;Humidity;BMP_temperature;BMP_pressure;BME280_temperature;BME280_humidity;BME280_pressure;Samples;Min_cycle;Max_cycle;Signal;HPM_P1;HPM_P2
2023/07/24 00:00:17;;;;;;;;;3.00;3.00;;;;;;;;5050490;28;9146;-92
2023/07/24 00:02:57;;;;;;;;;6.25;3.75;;;;;;;;5051021;28;8889;-91
2023/07/24 00:05:25;;;;;;;;;2.75;2.75;;;;;;;;5051682;28;9009;-92
2023/07/24 00:07:53;;;;;;;;;4.00;4.00;;;;;;;;5056855;28;8938;-91
2023/07/24 00:10:20;;;;;;;;;3.75;3.75;;;;;;;;5058008;28;8902;-91
2023/07/24 00:12:47;;;;;;;;;5.50;4.25;;;;;;;;5057325;28;8981;-91
2023/07/24 00:15:15;;;;;;;;;4.00;4.00;;;;;;;;5052678;28;8953;-93
2023/07/24 00:17:42;;;;;;;;;2.75;2.75;;;;;;;;5051941;28;8952;-91
2023/07/24 00:20:10;;;;;;;;;3.00;3.00;;;;;;;;5053699;28;8871;-90
2023/07/24 00:22:41;;;;;;;;;3.50;3.50;;;;;;;;5055295;28;8843;-91
2023/07/24 00:25:10;;;;;;;;;2.50;2.50;;;;;;;;5053738;28;9634;-93
2023/07/24 00:27:37;;;;;;;;;3.00;3.00;;;;;;;;5054464;28;8929;-91
2023/07/24 00:30:05;;;;;;;;;2.00;2.00;;;;;;;;5054062;28;8897;-91
2023/07/24 00:32:32;;;;;;;;;3.00;3.00;;;;;;;;5054793;28;8848;-92
2023/07/24 00:35:00;;;;;;;;;2.40;2.40;;;;;;;;5053516;28;8843;-91
2023/07/24 00:37:27;;;;;;;;;2.75;2.75;;;;;;;;5054484;28;8873;-91
2023/07/24 00:39:56;;;;;;;;;4.00;3.75;;;;;;;;5053424;28;9009;-91
2023/07/24 00:42:24;;;;;;;;;4.00;2.50;;;;;;;;5055822;28;8874;-90
2023/07/24 00:44:51;;;;;;;;;3.75;3.75;;;;;;;;5063161;28;8895;-91
2023/07/24 00:47:18;;;;;;;;;4.25;4.25;;;;;;;;5059658;28;8928;-90
2023/07/24 00:49:46;;;;;;;;;2.75;2.75;;;;;;;;5058305;28;8875;-89
2023/07/24 00:52:14;;;;;;;;;3.75;3.75;;;;;;;;5054333;28;8839;-91
2023/07/24 00:54:44;;;;;;;;;2.00;2.00;;;;;;;;5054657;28;8920;-89
2023/07/24 00:57:14;;;;;;;;;4.00;4.00;;;;;;;;5054022;28;8843;-91
2023/07/24 00:59:42;;;;;;;;;3.75;3.75;;;;;;;;5054323;28;8859;-89
2023/07/24 01:02:09;;;;;;;;;4.00;3.25;;;;;;;;5053662;28;8795;-89
2023/07/24 01:04:36;;;;;;;;;3.50;3.50;;;;;;;;5054092;28;8863;-90
2023/07/24 01:07:04;;;;;;;;;4.25;4.25;;;;;;;;5054064;28;8863;-89
2023/07/24 01:09:32;;;;;;;;;2.75;2.75;;;;;;;;5054566;28;8839;-91
2023/07/24 01:12:04;;;;;;;;;3.50;3.50;;;;;;;;5054788;28;8851;-92
2023/07/24 01:14:40;;;;;;;;;3.25;3.25;;;;;;;;5054845;28;9032;-91
2023/07/24 01:17:09;;;;;;;;;4.00;4.00;;;;;;;;5056323;28;8954;-91
2023/07/24 01:19:39;;;;;;;;;2.50;2.50;;;;;;;;5057827;28;8847;-91
2023/07/24 01:22:14;;;;;;;;;3.00;3.00;;;;;;;;5062462;28;8873;-92
2023/07/24 01:24:54;;;;;;;;;4.50;4.50;;;;;;;;5058014;28;8876;-90
2023/07/24 01:27:25;;;;;;;;;3.25;3.25;;;;;;;;5056948;28;8862;-91
2023/07/24 01:29:53;;;;;;;;;4.25;4.25;;;;;;;;5053184;28;8824;-90
2023/07/24 01:32:20;;;;;;;;;4.50;4.50;;;;;;;;5053000;28;8926;-90
2023/07/24 01:34:48;;;;;;;;;2.25;2.25;;;;;;;;5053436;28;8885;-89
2023/07/24 01:37:16;;;;;;;;;4.00;4.00;;;;;;;;5053345;28;8863;-90
2023/07/24 01:39:45;;;;;;;;;4.75;4.00;;;;;;;;5053358;28;8957;-90
2023/07/24 01:42:16;;;;;;;;;4.00;4.00;;;;;;;;5052748;28;9009;-93
2023/07/24 01:44:52;;;;;;;;;3.75;3.75;;;;;;;;5053091;28;9007;-92
2023/07/24 01:47:19;;;;;;;;;3.00;3.00;;;;;;;;5053214;28;8993;-89
2023/07/24 01:49:47;;;;;;;;;3.50;3.50;;;;;;;;5053105;28;8981;-92
2023/07/24 01:52:14;;;;;;;;;3.50;2.75;;;;;;;;5053562;28;8855;-92
2023/07/24 01:54:41;;;;;;;;;7.00;4.00;;;;;;;;5054919;28;8934;-88
2023/07/24 01:57:08;;;;;;;;;5.50;4.25;;;;;;;;5061634;28;8969;-90
2023/07/24 01:59:39;;;;;;;;;6.00;4.75;;;;;;;;5059315;28;9004;-90
2023/07/24 02:02:08;;;;;;;;;4.00;3.00;;;;;;;;5056409;28;8815;-90
2023/07/24 02:04:35;;;;;;;;;5.00;5.00;;;;;;;;5053819;28;8916;-92
2023/07/24 02:07:02;;;;;;;;;3.00;3.00;;;;;;;;5053249;28;8993;-90
2023/07/24 02:09:29;;;;;;;;;6.00;4.00;;;;;;;;5052576;28;8863;-91
2023/07/24 02:11:57;;;;;;;;;3.00;3.00;;;;;;;;5052507;28;8982;-90
2023/07/24 02:14:24;;;;;;;;;4.75;4.75;;;;;;;;5052371;28;8982;-88
2023/07/24 02:16:51;;;;;;;;;4.00;4.00;;;;;;;;5052761;28;8969;-89
2023/07/24 02:19:20;;;;;;;;;4.00;4.00;;;;;;;;5052285;28;8859;-88
2023/07/24 02:21:47;;;;;;;;;3.00;2.00;;;;;;;;5052706;28;8989;-89
2023/07/24 02:24:17;;;;;;;;;3.25;3.25;;;;;;;;5052071;28;8982;-89
2023/07/24 02:26:45;;;;;;;;;3.00;3.00;;;;;;;;5052183;28;8852;-90
2023/07/24 02:29:12;;;;;;;;;3.25;3.25;;;;;;;;5052248;28;8851;-90
2023/07/24 02:31:39;;;;;;;;;3.75;3.75;;;;;;;;5055580;28;8901;-90
2023/07/24 02:34:07;;;;;;;;;3.75;3.75;;;;;;;;5060208;28;8878;-89
2023/07/24 02:36:36;;;;;;;;;4.50;2.25;;;;;;;;5057439;28;8871;-89
2023/07/24 02:39:09;;;;;;;;;3.25;3.25;;;;;;;;5057104;28;8851;-90
2023/07/24 02:41:36;;;;;;;;;1.00;1.00;;;;;;;;5053667;28;8858;-91
2023/07/24 02:44:04;;;;;;;;;3.50;3.50;;;;;;;;5052174;28;8867;-89
2023/07/24 02:46:31;;;;;;;;;3.00;3.00;;;;;;;;5052259;28;8934;-90
2023/07/24 02:48:59;;;;;;;;;3.25;3.25;;;;;;;;5052467;28;8866;-90
2023/07/24 02:51:26;;;;;;;;;3.50;3.50;;;;;;;;5053192;28;8851;-91
2023/07/24 02:53:56;;;;;;;;;4.00;4.00;;;;;;;;5054613;28;8970;-93
2023/07/24 02:56:23;;;;;;;;;6.50;4.50;;;;;;;;5053444;28;8871;-90
2023/07/24 02:58:51;;;;;;;;;3.75;3.75;;;;;;;;5054010;28;8854;-90
2023/07/24 03:01:18;;;;;;;;;6.75;5.25;;;;;;;;5051970;28;8801;-90
2023/07/24 03:03:46;;;;;;;;;3.50;3.50;;;;;;;;5051830;28;8985;-87
2023/07/24 03:06:13;;;;;;;;;2.40;2.40;;;;;;;;5051580;28;8858;-88
2023/07/24 03:08:40;;;;;;;;;4.50;4.50;;;;;;;;5056379;28;8863;-88
2023/07/24 03:11:09;;;;;;;;;4.75;4.75;;;;;;;;5057120;28;9018;-88
2023/07/24 03:13:36;;;;;;;;;4.40;4.00;;;;;;;;5055134;28;8859;-87
2023/07/24 03:16:04;;;;;;;;;6.60;4.80;;;;;;;;5052235;28;8863;-89
2023/07/24 03:18:31;;;;;;;;;4.60;4.20;;;;;;;;5051917;28;8985;-89
2023/07/24 03:20:59;;;;;;;;;4.00;4.00;;;;;;;;5051574;28;8944;-87
2023/07/24 03:23:26;;;;;;;;;5.00;5.00;;;;;;;;5051466;28;8873;-88
2023/07/24 03:25:54;;;;;;;;;5.00;5.00;;;;;;;;5051286;28;8831;-88
2023/07/24 03:28:22;;;;;;;;;5.25;4.75;;;;;;;;5051446;28;8835;-88
2023/07/24 03:30:50;;;;;;;;;4.25;4.25;;;;;;;;5050727;28;8898;-89
2023/07/24 03:33:18;;;;;;;;;5.00;5.00;;;;;;;;5051403;28;8866;-89
2023/07/24 03:35:48;;;;;;;;;3.80;3.80;;;;;;;;5051206;28;8869;-90
2023/07/24 03:38:15;;;;;;;;;3.00;3.00;;;;;;;;5051477;28;8855;-89
2023/07/24 03:40:43;;;;;;;;;3.25;3.25;;;;;;;;5051235;28;8843;-89
2023/07/24 03:43:10;;;;;;;;;4.00;4.00;;;;;;;;5053566;28;8969;-90
2023/07/24 03:45:39;;;;;;;;;4.25;4.25;;;;;;;;5057074;28;8883;-89
2023/07/24 03:48:06;;;;;;;;;3.00;3.00;;;;;;;;5043452;28;8873;-88
2023/07/24 03:50:34;;;;;;;;;3.75;3.75;;;;;;;;5034344;28;8894;-89
2023/07/24 03:53:02;;;;;;;;;5.00;5.00;;;;;;;;5035346;28;8880;-88
2023/07/24 03:55:29;;;;;;;;;5.00;5.00;;;;;;;;5031922;28;8857;-91
2023/07/24 03:57:56;;;;;;;;;2.25;2.25;;;;;;;;5030638;28;8869;-89
2023/07/24 04:00:24;;;;;;;;;4.00;4.00;;;;;;;;5030651;28;9010;-90
2023/07/24 04:02:52;;;;;;;;;5.00;5.00;;;;;;;;5032051;28;8846;-90
2023/07/24 04:05:20;;;;;;;;;5.00;5.00;;;;;;;;5033357;28;8865;-88
2023/07/24 04:07:47;;;;;;;;;4.50;3.25;;;;;;;;5033073;28;8862;-90
2023/07/24 04:10:17;;;;;;;;;4.50;4.50;;;;;;;;5030717;28;8871;-89
2023/07/24 04:12:48;;;;;;;;;5.25;3.75;;;;;;;;5031079;28;9004;-90
2023/07/24 04:15:15;;;;;;;;;4.75;4.75;;;;;;;;5044603;28;8928;-88
2023/07/24 04:17:45;;;;;;;;;5.00;4.75;;;;;;;;5050681;28;8847;-88
2023/07/24 04:20:15;;;;;;;;;5.00;5.00;;;;;;;;5050959;28;8902;-90
2023/07/24 04:22:45;;;;;;;;;5.25;4.75;;;;;;;;5051929;28;8855;-89
2023/07/24 04:25:23;;;;;;;;;4.50;4.50;;;;;;;;5053063;28;8871;-90
2023/07/24 04:27:50;;;;;;;;;5.00;5.00;;;;;;;;5058008;28;8857;-91
2023/07/24 04:30:18;;;;;;;;;5.75;4.75;;;;;;;;5056114;28;8883;-87
2023/07/24 04:32:51;;;;;;;;;4.75;4.75;;;;;;;;5055799;28;8843;-89
2023/07/24 04:35:20;;;;;;;;;8.00;5.50;;;;;;;;5054294;28;9011;-89
2023/07/24 04:37:47;;;;;;;;;7.00;6.00;;;;;;;;5054739;28;8847;-90
2023/07/24 04:40:17;;;;;;;;;6.75;6.75;;;;;;;;5051756;28;8877;-90
2023/07/24 04:42:47;;;;;;;;;6.50;4.00;;;;;;;;5051686;28;8859;-90
2023/07/24 04:45:18;;;;;;;;;4.75;4.75;;;;;;;;5049805;28;8847;-89
2023/07/24 04:47:46;;;;;;;;;6.50;5.00;;;;;;;;5050551;28;8887;-91
2023/07/24 04:50:15;;;;;;;;;4.50;4.25;;;;;;;;5049915;28;8855;-90
2023/07/24 04:52:45;;;;;;;;;4.75;4.75;;;;;;;;5050914;28;8891;-89
2023/07/24 04:55:12;;;;;;;;;7.75;6.00;;;;;;;;5053060;28;9293;-90
2023/07/24 04:57:41;;;;;;;;;5.75;5.75;;;;;;;;5056923;28;8847;-90
2023/07/24 05:00:10;;;;;;;;;6.00;6.00;;;;;;;;5055601;28;9006;-90
2023/07/24 05:02:37;;;;;;;;;6.25;6.25;;;;;;;;5055504;28;8839;-90
2023/07/24 05:05:05;;;;;;;;;5.25;5.25;;;;;;;;5051900;28;8881;-90
2023/07/24 05:07:32;;;;;;;;;4.25;4.25;;;;;;;;5053426;28;9590;-89
2023/07/24 05:10:01;;;;;;;;;5.25;5.25;;;;;;;;5053606;28;8843;-90
2023/07/24 05:12:28;;;;;;;;;5.75;5.75;;;;;;;;5053879;28;8878;-89
2023/07/24 05:14:55;;;;;;;;;6.50;5.00;;;;;;;;5053533;28;9009;-83
2023/07/24 05:17:23;;;;;;;;;5.75;5.25;;;;;;;;5052213;28;8855;-75
2023/07/24 05:19:50;;;;;;;;;6.50;6.50;;;;;;;;5052320;28;8855;-76
2023/07/24 05:22:17;;;;;;;;;4.00;4.00;;;;;;;;5055731;28;8900;-76
2023/07/24 05:24:47;;;;;;;;;8.25;6.75;;;;;;;;5052218;28;8835;-79
2023/07/24 05:27:16;;;;;;;;;8.00;7.00;;;;;;;;5052085;28;8974;-75
2023/07/24 05:29:44;;;;;;;;;6.00;6.00;;;;;;;;5052206;28;8862;-78
2023/07/24 05:32:11;;;;;;;;;5.00;5.00;;;;;;;;5051945;28;8799;-81
2023/07/24 05:34:39;;;;;;;;;7.50;6.00;;;;;;;;5052200;28;9001;-79
2023/07/24 05:37:07;;;;;;;;;5.75;4.50;;;;;;;;5051319;28;8877;-76
2023/07/24 05:39:34;;;;;;;;;7.50;7.50;;;;;;;;5051172;28;8886;-73
2023/07/24 05:42:01;;;;;;;;;4.75;4.75;;;;;;;;5050964;28;8885;-77
2023/07/24 05:44:29;;;;;;;;;5.75;5.75;;;;;;;;5051243;28;8859;-75
2023/07/24 05:46:57;;;;;;;;;4.00;4.00;;;;;;;;5051349;28;8871;-76
2023/07/24 05:49:24;;;;;;;;;5.25;4.00;;;;;;;;5051634;28;8861;-77
2023/07/24 05:51:52;;;;;;;;;5.25;5.00;;;;;;;;5051945;28;8866;-83
2023/07/24 05:54:19;;;;;;;;;6.50;4.75;;;;;;;;5052195;28;8878;-83
2023/07/24 05:56:47;;;;;;;;;6.00;6.00;;;;;;;;5051785;28;9010;-81
2023/07/24 05:59:17;;;;;;;;;4.75;4.75;;;;;;;;5051929;28;8858;-82
2023/07/24 06:01:45;;;;;;;;;5.50;4.00;;;;;;;;5050882;28;8783;-79
2023/07/24 06:04:13;;;;;;;;;5.00;5.00;;;;;;;;5050915;28;8870;-80
2023/07/24 06:06:40;;;;;;;;;7.00;5.50;;;;;;;;5051880;28;8863;-78
2023/07/24 06:09:07;;;;;;;;;4.50;3.00;;;;;;;;5052624;28;8855;-76
2023/07/24 06:11:34;;;;;;;;;5.25;4.25;;;;;;;;5052885;28;8851;-77
2023/07/24 06:14:01;;;;;;;;;3.50;3.50;;;;;;;;5052978;28;8831;-75
2023/07/24 06:16:29;;;;;;;;;3.50;3.50;;;;;;;;5052309;28;8879;-77
2023/07/24 06:18:57;;;;;;;;;2.00;2.00;;;;;;;;5051625;28;8863;-76
2023/07/24 06:21:24;;;;;;;;;3.75;2.75;;;;;;;;5050835;28;9641;-74
2023/07/24 06:23:51;;;;;;;;;3.00;3.00;;;;;;;;5050763;28;9672;-75
2023/07/24 06:26:19;;;;;;;;;3.25;3.25;;;;;;;;5050995;28;9652;-75
2023/07/24 06:28:46;;;;;;;;;3.00;3.00;;;;;;;;5050409;28;8859;-75
2023/07/24 06:31:13;;;;;;;;;2.75;2.75;;;;;;;;5049764;28;8779;-75
2023/07/24 06:33:40;;;;;;;;;2.25;2.25;;;;;;;;5050205;28;8855;-75
2023/07/24 06:36:12;;;;;;;;;3.75;3.75;;;;;;;;5050084;28;8843;-75
2023/07/24 06:38:39;;;;;;;;;4.00;4.00;;;;;;;;5050071;28;9727;-75
2023/07/24 06:41:06;;;;;;;;;3.00;3.00;;;;;;;;5050026;28;8855;-75
2023/07/24 06:43:33;;;;;;;;;3.75;3.75;;;;;;;;5049916;28;8853;-74
2023/07/24 06:46:01;;;;;;;;;4.75;3.50;;;;;;;;5049666;28;9655;-75
2023/07/24 06:48:28;;;;;;;;;3.80;3.80;;;;;;;;5050056;28;8847;-75
2023/07/24 06:50:55;;;;;;;;;2.00;2.00;;;;;;;;5050107;28;9688;-75
2023/07/24 06:53:23;;;;;;;;;4.00;2.00;;;;;;;;5050694;28;8879;-75
2023/07/24 06:55:51;;;;;;;;;1.00;1.00;;;;;;;;5051062;28;9702;-75
2023/07/24 06:58:18;;;;;;;;;3.00;3.00;;;;;;;;5051004;28;8851;-74
2023/07/24 07:00:45;;;;;;;;;5.20;3.20;;;;;;;;5049475;28;8775;-74
2023/07/24 07:03:13;;;;;;;;;2.00;2.00;;;;;;;;5049972;28;8855;-75
2023/07/24 07:05:40;;;;;;;;;2.60;2.00;;;;;;;;5050089;28;8986;-78
2023/07/24 07:08:07;;;;;;;;;2.80;2.80;;;;;;;;5050376;28;8885;-79
2023/07/24 07:10:36;;;;;;;;;2.20;2.00;;;;;;;;5050064;28;8843;-76
2023/07/24 07:13:03;;;;;;;;;1.60;1.60;;;;;;;;5050232;28;9041;-75
2023/07/24 07:15:30;;;;;;;;;2.40;1.40;;;;;;;;5049542;28;9733;-75
2023/07/24 07:17:57;;;;;;;;;1.00;1.00;;;;;;;;5049755;28;8847;-75
2023/07/24 07:20:24;;;;;;;;;1.00;1.00;;;;;;;;5049692;28;8843;-75
2023/07/24 07:22:52;;;;;;;;;2.40;2.00;;;;;;;;5050103;28;8880;-78
2023/07/24 07:25:19;;;;;;;;;2.00;2.00;;;;;;;;5049607;28;8858;-75
2023/07/24 07:27:47;;;;;;;;;1.60;1.60;;;;;;;;5048680;28;8873;-75
2023/07/24 07:30:15;;;;;;;;;2.60;2.60;;;;;;;;5049099;28;8843;-75
2023/07/24 07:32:42;;;;;;;;;1.20;1.20;;;;;;;;5049600;28;9393;-75
2023/07/24 07:35:09;;;;;;;;;3.00;2.00;;;;;;;;5049719;28;8851;-75
2023/07/24 07:37:37;;;;;;;;;2.00;2.00;;;;;;;;5049086;28;8928;-75
2023/07/24 07:40:04;;;;;;;;;2.00;2.00;;;;;;;;5049633;28;8878;-75
2023/07/24 07:42:32;;;;;;;;;1.60;1.60;;;;;;;;5049337;28;8859;-75
2023/07/24 07:45:00;;;;;;;;;1.00;1.00;;;;;;;;5049879;28;8855;-77
2023/07/24 07:47:27;;;;;;;;;1.60;1.60;;;;;;;;5050333;28;9638;-76
2023/07/24 07:49:54;;;;;;;;;2.00;2.00;;;;;;;;5050800;28;8835;-80
2023/07/24 07:52:22;;;;;;;;;2.80;2.80;;;;;;;;5050813;28;8867;-79
2023/07/24 07:54:50;;;;;;;;;2.00;2.00;;;;;;;;5050159;28;8835;-83
2023/07/24 07:57:17;;;;;;;;;1.00;1.00;;;;;;;;5050130;28;8944;-79
2023/07/24 07:59:44;;;;;;;;;3.00;3.00;;;;;;;;5049625;28;8847;-78
2023/07/24 08:02:13;;;;;;;;;1.20;1.20;;;;;;;;5048969;28;9161;-80
2023/07/24 08:04:40;;;;;;;;;1.00;1.00;;;;;;;;5049137;28;8871;-79
2023/07/24 08:07:07;;;;;;;;;2.00;2.00;;;;;;;;5048697;28;8885;-80
2023/07/24 08:09:35;;;;;;;;;0.80;0.80;;;;;;;;5049247;28;8854;-80
2023/07/24 08:12:03;;;;;;;;;2.00;2.00;;;;;;;;5049152;28;9785;-78
2023/07/24 08:14:30;;;;;;;;;0.80;0.80;;;;;;;;5049330;28;8843;-78
2023/07/24 08:16:58;;;;;;;;;0.40;0.40;;;;;;;;5050073;28;8981;-78
2023/07/24 08:19:29;;;;;;;;;0.80;0.80;;;;;;;;5052319;28;9056;-78
2023/07/24 08:21:56;;;;;;;;;1.00;1.00;;;;;;;;5050539;28;8851;-79
2023/07/24 08:24:24;;;;;;;;;0.80;0.80;;;;;;;;5049531;28;8969;-83
2023/07/24 08:26:51;;;;;;;;;1.80;1.80;;;;;;;;5049563;28;8982;-79
2023/07/24 08:29:18;;;;;;;;;1.00;1.00;;;;;;;;5049729;28;8978;-77
2023/07/24 08:31:46;;;;;;;;;1.40;1.40;;;;;;;;5041783;28;9616;-79
2023/07/24 08:34:13;;;;;;;;;2.80;2.00;;;;;;;;5049699;28;8866;-79
2023/07/24 08:36:42;;;;;;;;;1.40;1.40;;;;;;;;5049350;28;8859;-79
2023/07/24 08:39:09;;;;;;;;;1.60;1.60;;;;;;;;5050740;28;8889;-79
2023/07/24 08:41:38;;;;;;;;;2.00;2.00;;;;;;;;5052697;28;8958;-82
2023/07/24 08:44:06;;;;;;;;;1.20;0.80;;;;;;;;5052929;28;8885;-81
2023/07/24 08:46:38;;;;;;;;;1.80;1.20;;;;;;;;5053001;28;8831;-83
2023/07/24 08:49:05;;;;;;;;;0.80;0.80;;;;;;;;5052828;28;8847;-83
2023/07/24 08:51:33;;;;;;;;;1.00;1.00;;;;;;;;5053282;28;8973;-80
2023/07/24 08:54:03;;;;;;;;;0.00;0.00;;;;;;;;5053046;28;8874;-80
2023/07/24 08:56:31;;;;;;;;;1.00;1.00;;;;;;;;5052964;28;8827;-82
2023/07/24 08:58:58;;;;;;;;;2.00;2.00;;;;;;;;5052811;28;8878;-80
2023/07/24 09:01:26;;;;;;;;;1.00;0.60;;;;;;;;5052147;28;8798;-82
2023/07/24 09:03:53;;;;;;;;;1.00;1.00;;;;;;;;5052781;28;8893;-82
2023/07/24 09:06:20;;;;;;;;;1.60;1.60;;;;;;;;5053082;28;8850;-81
2023/07/24 09:08:47;;;;;;;;;2.00;2.00;;;;;;;;5052868;28;8858;-80
2023/07/24 09:11:16;;;;;;;;;3.60;2.20;;;;;;;;5052413;28;8884;-80
2023/07/24 09:13:45;;;;;;;;;1.60;1.60;;;;;;;;5055723;28;8974;-78
2023/07/24 09:16:24;;;;;;;;;0.80;0.80;;;;;;;;5058389;28;8948;-81
2023/07/24 09:18:52;;;;;;;;;1.40;0.40;;;;;;;;5055154;28;8863;-79
2023/07/24 09:21:29;;;;;;;;;1.40;1.40;;;;;;;;5053364;28;8847;-81
2023/07/24 09:23:57;;;;;;;;;1.80;1.80;;;;;;;;5053251;28;8859;-80
2023/07/24 09:26:26;;;;;;;;;2.20;2.20;;;;;;;;5054223;28;8835;-81
2023/07/24 09:28:53;;;;;;;;;2.40;2.40;;;;;;;;5054762;28;8883;-77
2023/07/24 09:31:21;;;;;;;;;2.40;2.40;;;;;;;;5055049;28;8787;-79
2023/07/24 09:33:48;;;;;;;;;3.25;3.25;;;;;;;;5052188;28;8867;-82
2023/07/24 09:36:18;;;;;;;;;3.75;3.75;;;;;;;;5051618;28;8870;-84
2023/07/24 09:38:46;;;;;;;;;3.00;3.00;;;;;;;;5050919;28;8866;-80
2023/07/24 09:41:14;;;;;;;;;2.00;2.00;;;;;;;;5051972;28;8901;-79
2023/07/24 09:43:43;;;;;;;;;3.25;3.25;;;;;;;;5052079;28;8862;-81
2023/07/24 09:46:10;;;;;;;;;3.40;3.40;;;;;;;;5051746;28;8859;-81
2023/07/24 09:48:38;;;;;;;;;3.20;3.20;;;;;;;;5056332;28;8863;-79
2023/07/24 09:51:05;;;;;;;;;2.20;2.20;;;;;;;;5054984;28;8855;-82
2023/07/24 09:53:35;;;;;;;;;4.20;4.20;;;;;;;;5052684;28;8901;-86
2023/07/24 09:56:04;;;;;;;;;1.80;1.80;;;;;;;;5054595;28;8843;-81
2023/07/24 09:58:34;;;;;;;;;4.20;4.20;;;;;;;;5051595;28;8858;-81
2023/07/24 10:01:03;;;;;;;;;3.20;3.20;;;;;;;;5050650;28;8801;-79
2023/07/24 10:03:31;;;;;;;;;2.80;2.80;;;;;;;;5051316;28;8851;-81
2023/07/24 10:05:59;;;;;;;;;2.40;2.00;;;;;;;;5050746;28;8835;-79
2023/07/24 10:08:26;;;;;;;;;4.00;2.40;;;;;;;;5051347;28;8977;-76
2023/07/24 10:10:56;;;;;;;;;6.00;6.00;;;;;;;;5050695;28;8859;-82
2023/07/24 10:13:23;;;;;;;;;2.80;2.80;;;;;;;;5051131;28;8903;-79
2023/07/24 10:15:50;;;;;;;;;2.60;2.60;;;;;;;;5051513;28;8839;-77
2023/07/24 10:18:26;;;;;;;;;2.00;2.00;;;;;;;;5052577;28;8858;-80
2023/07/24 10:21:01;;;;;;;;;2.80;2.80;;;;;;;;5051754;28;8863;-77
2023/07/24 10:23:29;;;;;;;;;1.60;1.40;;;;;;;;5051611;28;8855;-78
2023/07/24 10:25:56;;;;;;;;;1.40;1.40;;;;;;;;5053169;28;8886;-75
2023/07/24 10:28:32;;;;;;;;;1.20;1.20;;;;;;;;5052542;28;9693;-78
2023/07/24 10:30:59;;;;;;;;;1.80;1.20;;;;;;;;5050202;28;8902;-80
2023/07/24 10:33:31;;;;;;;;;2.40;2.00;;;;;;;;5050987;28;8867;-75
2023/07/24 10:36:08;;;;;;;;;2.40;2.40;;;;;;;;5050729;28;8843;-76
2023/07/24 10:38:37;;;;;;;;;2.60;2.60;;;;;;;;5050756;28;8928;-80
2023/07/24 10:41:05;;;;;;;;;1.80;1.80;;;;;;;;5050522;28;8855;-81
2023/07/24 10:43:42;;;;;;;;;2.40;2.40;;;;;;;;5050775;28;8877;-79
2023/07/24 10:46:09;;;;;;;;;3.20;2.40;;;;;;;;5050350;28;8847;-79
2023/07/24 10:48:38;;;;;;;;;1.00;1.00;;;;;;;;5050440;28;8859;-81
2023/07/24 10:51:09;;;;;;;;;0.80;0.80;;;;;;;;5050258;28;8978;-79
2023/07/24 10:53:37;;;;;;;;;1.20;1.20;;;;;;;;5051391;28;8874;-80
2023/07/24 10:56:05;;;;;;;;;0.80;0.80;;;;;;;;5054777;28;8966;-82
2023/07/24 10:58:33;;;;;;;;;0.80;0.80;;;;;;;;5054420;28;8980;-85
2023/07/24 11:01:01;;;;;;;;;0.80;0.80;;;;;;;;5054207;28;8780;-83
2023/07/24 11:03:29;;;;;;;;;2.00;2.00;;;;;;;;5054748;28;8867;-86
2023/07/24 11:05:58;;;;;;;;;1.40;1.40;;;;;;;;5052527;28;8909;-84
2023/07/24 11:08:25;;;;;;;;;3.00;3.00;;;;;;;;5053815;28;8848;-88
2023/07/24 11:10:54;;;;;;;;;2.00;2.00;;;;;;;;5051473;28;8847;-82
2023/07/24 11:13:23;;;;;;;;;2.80;2.80;;;;;;;;5051245;28;8859;-79
2023/07/24 11:15:51;;;;;;;;;2.40;2.40;;;;;;;;5050377;28;8847;-79
2023/07/24 11:18:20;;;;;;;;;3.20;3.20;;;;;;;;5051138;28;8851;-81
2023/07/24 11:20:49;;;;;;;;;2.00;2.00;;;;;;;;5050409;28;9642;-79
2023/07/24 11:23:17;;;;;;;;;1.80;1.80;;;;;;;;5049394;28;8867;-78
2023/07/24 11:25:45;;;;;;;;;1.80;1.80;;;;;;;;5049809;28;9610;-76
2023/07/24 11:28:14;;;;;;;;;2.00;2.00;;;;;;;;5049215;28;8883;-77
2023/07/24 11:30:42;;;;;;;;;2.40;2.40;;;;;;;;5049022;28;8826;-80
2023/07/24 11:33:12;;;;;;;;;1.80;1.80;;;;;;;;5049237;28;8853;-79
2023/07/24 11:35:40;;;;;;;;;1.00;1.00;;;;;;;;5049917;28;8851;-82
2023/07/24 11:38:10;;;;;;;;;1.40;1.40;;;;;;;;5049715;28;8857;-78
2023/07/24 11:40:40;;;;;;;;;4.80;1.80;;;;;;;;5049827;28;8847;-81
2023/07/24 11:43:17;;;;;;;;;0.40;0.40;;;;;;;;5049639;28;8977;-83
2023/07/24 11:45:48;;;;;;;;;1.60;1.60;;;;;;;;5049288;28;9017;-80
2023/07/24 11:48:17;;;;;;;;;2.00;2.00;;;;;;;;5049361;28;8843;-91
2023/07/24 11:50:47;;;;;;;;;2.00;2.00;;;;;;;;5049716;28;8847;-80
2023/07/24 11:53:22;;;;;;;;;1.80;1.80;;;;;;;;5049633;28;8855;-81
2023/07/24 11:55:52;;;;;;;;;1.00;1.00;;;;;;;;5050000;28;8854;-80
2023/07/24 11:58:20;;;;;;;;;0.20;0.20;;;;;;;;5049729;28;8999;-80
2023/07/24 12:00:48;;;;;;;;;0.40;0.40;;;;;;;;5048971;28;8787;-81
2023/07/24 12:03:15;;;;;;;;;0.80;0.80;;;;;;;;5049468;28;8886;-80
2023/07/24 12:05:43;;;;;;;;;3.00;1.40;;;;;;;;5049720;28;8869;-79
2023/07/24 12:08:11;;;;;;;;;0.40;0.40;;;;;;;;5049202;28;8920;-80
2023/07/24 12:10:39;;;;;;;;;1.80;1.80;;;;;;;;5049157;28;8870;-79
2023/07/24 12:13:08;;;;;;;;;1.20;1.20;;;;;;;;5048871;28;8973;-79
2023/07/24 12:15:36;;;;;;;;;0.20;0.20;;;;;;;;5053494;28;8831;-79
2023/07/24 12:18:03;;;;;;;;;0.40;0.40;;;;;;;;5053264;28;8851;-79
2023/07/24 12:20:31;;;;;;;;;0.60;0.60;;;;;;;;5053443;28;8878;-79
2023/07/24 12:22:58;;;;;;;;;0.00;0.00;;;;;;;;5052686;28;8863;-78
2023/07/24 12:25:25;;;;;;;;;0.20;0.00;;;;;;;;5053370;28;8971;-79
2023/07/24 12:27:53;;;;;;;;;1.20;1.20;;;;;;;;5052794;28;8847;-78
2023/07/24 12:30:21;;;;;;;;;0.80;0.80;;;;;;;;5054146;28;8994;-80
2023/07/24 12:32:49;;;;;;;;;0.20;0.20;;;;;;;;5054504;28;8981;-80
2023/07/24 12:35:17;;;;;;;;;0.80;0.80;;;;;;;;5053901;28;8866;-80
2023/07/24 12:37:45;;;;;;;;;0.80;0.80;;;;;;;;5053847;28;8874;-81
2023/07/24 12:40:13;;;;;;;;;1.00;0.00;;;;;;;;5054330;28;8877;-80
2023/07/24 12:42:40;;;;;;;;;1.00;1.00;;;;;;;;5053251;28;9670;-80
2023/07/24 12:45:08;;;;;;;;;0.20;0.20;;;;;;;;5053220;28;8858;-79
2023/07/24 12:47:37;;;;;;;;;1.00;0.40;;;;;;;;5053350;28;8928;-79
2023/07/24 12:50:04;;;;;;;;;0.20;0.20;;;;;;;;5052204;28;8990;-80
2023/07/24 12:52:31;;;;;;;;;1.00;1.00;;;;;;;;5052518;28;8855;-79
2023/07/24 12:54:58;;;;;;;;;1.40;1.40;;;;;;;;5052469;28;8851;-79
2023/07/24 12:57:27;;;;;;;;;0.20;0.20;;;;;;;;5052101;28;8843;-79
2023/07/24 12:59:54;;;;;;;;;1.20;1.20;;;;;;;;5052394;28;8877;-79
2023/07/24 13:02:21;;;;;;;;;0.80;0.80;;;;;;;;5052088;28;8779;-79
2023/07/24 13:04:50;;;;;;;;;1.60;1.40;;;;;;;;5052491;28;8885;-79
2023/07/24 13:07:17;;;;;;;;;2.20;1.00;;;;;;;;5052358;28;8842;-79
2023/07/24 13:09:45;;;;;;;;;1.20;1.20;;;;;;;;5052161;28;8851;-80
2023/07/24 13:12:12;;;;;;;;;0.00;0.00;;;;;;;;5051561;28;8851;-79
2023/07/24 13:14:39;;;;;;;;;1.40;1.40;;;;;;;;5052151;28;8861;-80
2023/07/24 13:17:07;;;;;;;;;0.20;0.20;;;;;;;;5052104;28;8859;-79
2023/07/24 13:19:34;;;;;;;;;1.00;1.00;;;;;;;;5052904;28;8901;-79
2023/07/24 13:22:03;;;;;;;;;0.40;0.40;;;;;;;;5052180;28;8851;-79
2023/07/24 13:24:30;;;;;;;;;0.40;0.40;;;;;;;;5052218;28;9626;-79
2023/07/24 13:26:57;;;;;;;;;1.20;1.20;;;;;;;;5050715;28;8855;-78
2023/07/24 13:29:24;;;;;;;;;0.60;0.60;;;;;;;;5051490;28;8997;-79
2023/07/24 13:31:52;;;;;;;;;1.00;1.00;;;;;;;;5051400;28;8805;-79
2023/07/24 13:34:20;;;;;;;;;0.80;0.80;;;;;;;;5052192;28;8854;-78
2023/07/24 13:36:47;;;;;;;;;1.20;1.20;;;;;;;;5052184;28;8835;-78
2023/07/24 13:39:16;;;;;;;;;0.20;0.20;;;;;;;;5051613;28;8905;-78
2023/07/24 13:41:45;;;;;;;;;1.00;1.00;;;;;;;;5051468;28;8855;-78
2023/07/24 13:44:12;;;;;;;;;1.00;1.00;;;;;;;;5051150;28;8948;-79
2023/07/24 13:46:40;;;;;;;;;0.20;0.20;;;;;;;;5051378;28;8881;-79
2023/07/24 13:49:07;;;;;;;;;0.80;0.80;;;;;;;;5051610;28;8836;-79
2023/07/24 13:51:34;;;;;;;;;0.20;0.20;;;;;;;;5051542;28;9017;-80
2023/07/24 13:54:01;;;;;;;;;0.40;0.20;;;;;;;;5051572;28;8867;-78
2023/07/24 13:56:33;;;;;;;;;0.20;0.20;;;;;;;;5051408;28;9002;-78
2023/07/24 13:59:00;;;;;;;;;1.20;1.20;;;;;;;;5051679;28;9743;-79
2023/07/24 14:01:27;;;;;;;;;0.80;0.80;;;;;;;;5051067;28;8781;-78
2023/07/24 14:03:54;;;;;;;;;1.60;1.60;;;;;;;;5051319;28;9618;-78
2023/07/24 14:06:21;;;;;;;;;0.40;0.40;;;;;;;;5051967;28;8974;-79
2023/07/24 14:08:49;;;;;;;;;1.60;1.60;;;;;;;;5051458;28;8831;-79
2023/07/24 14:11:16;;;;;;;;;0.20;0.20;;;;;;;;5051682;28;8961;-78
2023/07/24 14:13:46;;;;;;;;;1.00;0.20;;;;;;;;5052222;28;8871;-79
2023/07/24 14:16:16;;;;;;;;;2.00;0.20;;;;;;;;5052847;28;8948;-79
2023/07/24 14:18:43;;;;;;;;;0.60;0.20;;;;;;;;5052901;28;8859;-79
2023/07/24 14:21:11;;;;;;;;;0.60;0.60;;;;;;;;5051906;28;8922;-79
2023/07/24 14:23:38;;;;;;;;;0.80;0.80;;;;;;;;5050985;28;9002;-79
2023/07/24 14:26:05;;;;;;;;;0.00;0.00;;;;;;;;5050553;28;8932;-79
2023/07/24 14:28:32;;;;;;;;;0.20;0.20;;;;;;;;5051081;28;8828;-79
2023/07/24 14:31:01;;;;;;;;;0.40;0.20;;;;;;;;5050183;28;8873;-79
2023/07/24 14:33:28;;;;;;;;;1.60;1.60;;;;;;;;5051827;28;8867;-79
2023/07/24 14:35:56;;;;;;;;;1.40;1.40;;;;;;;;5052448;28;8883;-78
2023/07/24 14:38:23;;;;;;;;;0.80;0.80;;;;;;;;5051445;28;8863;-78
2023/07/24 14:40:50;;;;;;;;;0.80;0.80;;;;;;;;5050941;28;8862;-79
2023/07/24 14:43:17;;;;;;;;;0.80;0.80;;;;;;;;5050802;28;8858;-80
2023/07/24 14:45:47;;;;;;;;;0.00;0.00;;;;;;;;5050472;28;8889;-79
2023/07/24 14:48:16;;;;;;;;;2.80;2.80;;;;;;;;5049979;28;8842;-77
2023/07/24 14:50:44;;;;;;;;;2.80;2.80;;;;;;;;5050268;28;9622;-79
2023/07/24 14:53:11;;;;;;;;;1.00;1.00;;;;;;;;5050246;28;8936;-79
2023/07/24 14:55:38;;;;;;;;;1.20;1.20;;;;;;;;5050632;28;8885;-79
2023/07/24 14:58:05;;;;;;;;;3.80;3.80;;;;;;;;5050048;28;8843;-78
2023/07/24 15:00:33;;;;;;;;;3.00;3.00;;;;;;;;5049762;28;8779;-79
2023/07/24 15:03:04;;;;;;;;;3.00;3.00;;;;;;;;5049987;28;8973;-78